sensor_id;sensor_type;location;lat;lon;timestamp;P1;durP1;ratioP1;P2;durP2;ratioP2
47896;SDS011;39629;51.400;5.494;2022-07-24T00:04:35;5.18;;;3.63;;
47896;SDS011;39629;51.400;5.494;2022-07-24T00:09:37;4.97;;;3.40;;
47896;SDS011;39629;51.400;5.494;2022-07-24T00:14:39;4.70;;;3.03;;
47896;SDS011;39629;51.400;5.494;2022-07-24T00:19:41;5.55;;;3.72;;
47896;SDS011;39629;51.400;5.494;2022-07-24T00:24:43;6.53;;;3.67;;
47896;SDS011;39629;51.400;5.494;2022-07-24T00:29:45;5.18;;;3.08;;
47896;SDS011;39629;51.400;5.494;2022-07-24T00:34:47;5.50;;;3.50;;
47896;SDS011;39629;51.400;5.494;2022-07-24T00:39:50;4.95;;;3.25;;
47896;SDS011;39629;51.400;5.494;2022-07-24T00:44:51;5.65;;;3.55;;
47896;SDS011;39629;51.400;5.494;2022-07-24T00:49:53;6.32;;;3.92;;
47896;SDS011;39629;51.400;5.494;2022-07-24T00:54:56;4.25;;;3.03;;
47896;SDS011;39629;51.400;5.494;2022-07-24T00:59:57;4.60;;;3.10;;
47896;SDS011;39629;51.400;5.494;2022-07-24T01:05:00;3.70;;;2.47;;
47896;SDS011;39629;51.400;5.494;2022-07-24T01:10:03;4.28;;;2.90;;
47896;SDS011;39629;51.400;5.494;2022-07-24T01:15:07;4.68;;;3.08;;
47896;SDS011;39629;51.400;5.494;2022-07-24T01:20:11;4.30;;;2.70;;
47896;SDS011;39629;51.400;5.494;2022-07-24T01:25:14;4.22;;;3.10;;
47896;SDS011;39629;51.400;5.494;2022-07-24T01:30:16;6.03;;;3.00;;
47896;SDS011;39629;51.400;5.494;2022-07-24T01:35:18;4.38;;;3.45;;
47896;SDS011;39629;51.400;5.494;2022-07-24T01:40:21;4.55;;;2.90;;
47896;SDS011;39629;51.400;5.494;2022-07-24T01:45:23;3.85;;;2.78;;
47896;SDS011;39629;51.400;5.494;2022-07-24T01:50:26;4.88;;;3.40;;
47896;SDS011;39629;51.400;5.494;2022-07-24T01:55:29;8.88;;;4.47;;
47896;SDS011;39629;51.400;5.494;2022-07-24T02:00:31;5.97;;;3.73;;
47896;SDS011;39629;51.400;5.494;2022-07-24T02:05:33;5.07;;;3.55;;
47896;SDS011;39629;51.400;5.494;2022-07-24T02:10:36;4.50;;;2.90;;
47896;SDS011;39629;51.400;5.494;2022-07-24T02:15:37;7.13;;;3.40;;
47896;SDS011;39629;51.400;5.494;2022-07-24T02:20:39;5.80;;;3.72;;
47896;SDS011;39629;51.400;5.494;2022-07-24T02:25:42;7.90;;;3.50;;
47896;SDS011;39629;51.400;5.494;2022-07-24T02:30:44;4.38;;;2.90;;
47896;SDS011;39629;51.400;5.494;2022-07-24T02:35:46;7.55;;;3.40;;
47896;SDS011;39629;51.400;5.494;2022-07-24T02:40:49;6.75;;;3.40;;
47896;SDS011;39629;51.400;5.494;2022-07-24T02:45:51;6.18;;;3.38;;
47896;SDS011;39629;51.400;5.494;2022-07-24T02:50:52;5.05;;;3.15;;
47896;SDS011;39629;51.400;5.494;2022-07-24T02:55:56;5.40;;;3.17;;
47896;SDS011;39629;51.400;5.494;2022-07-24T03:00:58;5.78;;;3.58;;
47896;SDS011;39629;51.400;5.494;2022-07-24T03:06:00;6.63;;;4.25;;
47896;SDS011;39629;51.400;5.494;2022-07-24T03:11:03;6.10;;;4.03;;
47896;SDS011;39629;51.400;5.494;2022-07-24T03:16:05;6.75;;;4.22;;
47896;SDS011;39629;51.400;5.494;2022-07-24T03:21:07;4.63;;;3.38;;
47896;SDS011;39629;51.400;5.494;2022-07-24T03:26:10;5.43;;;3.70;;
47896;SDS011;39629;51.400;5.494;2022-07-24T03:31:11;6.03;;;4.18;;
47896;SDS011;39629;51.400;5.494;2022-07-24T03:36:13;4.80;;;3.08;;
47896;SDS011;39629;51.400;5.494;2022-07-24T03:41:16;5.13;;;3.13;;
47896;SDS011;39629;51.400;5.494;2022-07-24T03:46:18;5.65;;;4.07;;
47896;SDS011;39629;51.400;5.494;2022-07-24T03:51:20;5.55;;;3.70;;
47896;SDS011;39629;51.400;5.494;2022-07-24T03:56:23;5.65;;;3.67;;
47896;SDS011;39629;51.400;5.494;2022-07-24T04:01:25;6.05;;;3.85;;
47896;SDS011;39629;51.400;5.494;2022-07-24T04:06:26;4.45;;;3.15;;
47896;SDS011;39629;51.400;5.494;2022-07-24T04:11:29;4.90;;;2.97;;
47896;SDS011;39629;51.400;5.494;2022-07-24T04:16:31;5.70;;;3.33;;
47896;SDS011;39629;51.400;5.494;2022-07-24T04:21:33;5.78;;;4.00;;
47896;SDS011;39629;51.400;5.494;2022-07-24T04:26:36;5.82;;;3.78;;
47896;SDS011;39629;51.400;5.494;2022-07-24T04:31:38;4.95;;;3.63;;
47896;SDS011;39629;51.400;5.494;2022-07-24T04:36:40;5.45;;;3.40;;
47896;SDS011;39629;51.400;5.494;2022-07-24T04:41:43;4.85;;;3.50;;
47896;SDS011;39629;51.400;5.494;2022-07-24T04:46:44;5.28;;;3.65;;
47896;SDS011;39629;51.400;5.494;2022-07-24T04:51:46;6.78;;;4.32;;
47896;SDS011;39629;51.400;5.494;2022-07-24T04:56:49;5.70;;;3.97;;
47896;SDS011;39629;51.400;5.494;2022-07-24T05:01:51;9.02;;;5.22;;
47896;SDS011;39629;51.400;5.494;2022-07-24T05:06:52;8.32;;;4.75;;
47896;SDS011;39629;51.400;5.494;2022-07-24T05:11:55;10.63;;;5.70;;
47896;SDS011;39629;51.400;5.494;2022-07-24T05:16:57;8.93;;;4.88;;
47896;SDS011;39629;51.400;5.494;2022-07-24T05:21:59;16.92;;;9.65;;
47896;SDS011;39629;51.400;5.494;2022-07-24T05:27:02;15.68;;;10.05;;
47896;SDS011;39629;51.400;5.494;2022-07-24T05:32:04;19.75;;;10.10;;
47896;SDS011;39629;51.400;5.494;2022-07-24T05:37:06;22.38;;;11.80;;
47896;SDS011;39629;51.400;5.494;2022-07-24T05:42:10;16.70;;;9.68;;
47896;SDS011;39629;51.400;5.494;2022-07-24T05:47:11;17.20;;;9.65;;
47896;SDS011;39629;51.400;5.494;2022-07-24T05:52:13;13.27;;;7.80;;
47896;SDS011;39629;51.400;5.494;2022-07-24T05:57:16;17.88;;;10.50;;
47896;SDS011;39629;51.400;5.494;2022-07-24T06:02:17;18.45;;;9.85;;
47896;SDS011;39629;51.400;5.494;2022-07-24T06:07:19;18.50;;;10.35;;
47896;SDS011;39629;51.400;5.494;2022-07-24T06:12:22;16.02;;;9.85;;
47896;SDS011;39629;51.400;5.494;2022-07-24T06:17:23;16.20;;;9.38;;
47896;SDS011;39629;51.400;5.494;2022-07-24T06:22:25;13.80;;;8.60;;
47896;SDS011;39629;51.400;5.494;2022-07-24T06:27:28;12.27;;;8.07;;
47896;SDS011;39629;51.400;5.494;2022-07-24T06:32:29;13.00;;;7.05;;
47896;SDS011;39629;51.400;5.494;2022-07-24T06:37:31;12.00;;;6.75;;
47896;SDS011;39629;51.400;5.494;2022-07-24T06:42:34;12.75;;;6.28;;
47896;SDS011;39629;51.400;5.494;2022-07-24T06:47:36;11.03;;;6.40;;
47896;SDS011;39629;51.400;5.494;2022-07-24T06:52:38;11.35;;;6.43;;
47896;SDS011;39629;51.400;5.494;2022-07-24T06:57:41;10.43;;;5.95;;
47896;SDS011;39629;51.400;5.494;2022-07-24T07:02:42;8.60;;;5.03;;
47896;SDS011;39629;51.400;5.494;2022-07-24T07:07:44;6.78;;;4.30;;
47896;SDS011;39629;51.400;5.494;2022-07-24T07:12:47;9.88;;;5.70;;
47896;SDS011;39629;51.400;5.494;2022-07-24T07:17:48;7.33;;;4.87;;
47896;SDS011;39629;51.400;5.494;2022-07-24T07:22:50;7.35;;;4.78;;
47896;SDS011;39629;51.400;5.494;2022-07-24T07:27:53;5.60;;;3.60;;
47896;SDS011;39629;51.400;5.494;2022-07-24T07:32:54;6.43;;;3.60;;
47896;SDS011;39629;51.400;5.494;2022-07-24T07:37:56;3.92;;;2.80;;
47896;SDS011;39629;51.400;5.494;2022-07-24T07:42:59;5.78;;;3.22;;
47896;SDS011;39629;51.400;5.494;2022-07-24T07:53:03;5.30;;;2.95;;
47896;SDS011;39629;51.400;5.494;2022-07-24T07:58:06;4.38;;;3.00;;
47896;SDS011;39629;51.400;5.494;2022-07-24T08:03:07;4.53;;;2.70;;
47896;SDS011;39629;51.400;5.494;2022-07-24T08:08:09;4.38;;;2.83;;
47896;SDS011;39629;51.400;5.494;2022-07-24T08:13:12;4.38;;;2.28;;
47896;SDS011;39629;51.400;5.494;2022-07-24T08:18:15;5.18;;;2.10;;
47896;SDS011;39629;51.400;5.494;2022-07-24T08:23:16;3.67;;;2.35;;
47896;SDS011;39629;51.400;5.494;2022-07-24T08:28:19;3.22;;;2.05;;
47896;SDS011;39629;51.400;5.494;2022-07-24T08:33:23;2.92;;;1.70;;
47896;SDS011;39629;51.400;5.494;2022-07-24T08:38:24;3.40;;;2.00;;
47896;SDS011;39629;51.400;5.494;2022-07-24T08:43:27;2.80;;;1.73;;
47896;SDS011;39629;51.400;5.494;2022-07-24T08:48:29;2.90;;;1.70;;
47896;SDS011;39629;51.400;5.494;2022-07-24T08:53:33;2.45;;;1.60;;
47896;SDS011;39629;51.400;5.494;2022-07-24T08:58:40;2.00;;;1.50;;
47896;SDS011;39629;51.400;5.494;2022-07-24T09:03:42;1.77;;;1.30;;
47896;SDS011;39629;51.400;5.494;2022-07-24T09:08:56;2.55;;;1.60;;
47896;SDS011;39629;51.400;5.494;2022-07-24T09:14:01;2.17;;;1.40;;
47896;SDS011;39629;51.400;5.494;2022-07-24T09:19:19;2.92;;;1.08;;
47896;SDS011;39629;51.400;5.494;2022-07-24T09:24:21;1.67;;;1.20;;
47896;SDS011;39629;51.400;5.494;2022-07-24T09:29:25;2.03;;;1.20;;
47896;SDS011;39629;51.400;5.494;2022-07-24T09:34:27;3.17;;;1.10;;
47896;SDS011;39629;51.400;5.494;2022-07-24T09:39:31;2.67;;;1.10;;
47896;SDS011;39629;51.400;5.494;2022-07-24T09:44:35;1.45;;;1.02;;
47896;SDS011;39629;51.400;5.494;2022-07-24T09:49:38;1.77;;;1.30;;
47896;SDS011;39629;51.400;5.494;2022-07-24T09:54:41;2.05;;;1.40;;
47896;SDS011;39629;51.400;5.494;2022-07-24T09:59:47;1.63;;;1.13;;
47896;SDS011;39629;51.400;5.494;2022-07-24T10:04:50;1.98;;;1.40;;
47896;SDS011;39629;51.400;5.494;2022-07-24T10:09:53;2.08;;;1.33;;
47896;SDS011;39629;51.400;5.494;2022-07-24T10:14:58;2.08;;;1.40;;
47896;SDS011;39629;51.400;5.494;2022-07-24T10:20:02;2.17;;;1.38;;
47896;SDS011;39629;51.400;5.494;2022-07-24T10:25:05;3.15;;;1.60;;
47896;SDS011;39629;51.400;5.494;2022-07-24T10:30:10;2.50;;;1.60;;
47896;SDS011;39629;51.400;5.494;2022-07-24T10:35:12;2.40;;;1.40;;
47896;SDS011;39629;51.400;5.494;2022-07-24T10:40:20;2.38;;;1.52;;
47896;SDS011;39629;51.400;5.494;2022-07-24T10:45:26;1.88;;;1.27;;
47896;SDS011;39629;51.400;5.494;2022-07-24T10:56:19;2.45;;;1.33;;
47896;SDS011;39629;51.400;5.494;2022-07-24T11:01:34;2.33;;;1.40;;
47896;SDS011;39629;51.400;5.494;2022-07-24T11:06:39;1.30;;;1.00;;
47896;SDS011;39629;51.400;5.494;2022-07-24T11:22:40;1.80;;;1.20;;
47896;SDS011;39629;51.400;5.494;2022-07-24T11:27:48;1.50;;;1.20;;
47896;SDS011;39629;51.400;5.494;2022-07-24T11:32:58;3.42;;;1.27;;
47896;SDS011;39629;51.400;5.494;2022-07-24T11:38:00;2.35;;;1.30;;
47896;SDS011;39629;51.400;5.494;2022-07-24T11:43:03;2.28;;;1.42;;
47896;SDS011;39629;51.400;5.494;2022-07-24T11:48:17;1.92;;;1.27;;
47896;SDS011;39629;51.400;5.494;2022-07-24T11:53:19;2.42;;;1.20;;
47896;SDS011;39629;51.400;5.494;2022-07-24T12:03:25;1.50;;;1.08;;
47896;SDS011;39629;51.400;5.494;2022-07-24T12:08:28;2.40;;;1.52;;
47896;SDS011;39629;51.400;5.494;2022-07-24T12:18:34;1.73;;;1.30;;
47896;SDS011;39629;51.400;5.494;2022-07-24T12:23:36;2.78;;;1.40;;
47896;SDS011;39629;51.400;5.494;2022-07-24T12:28:37;1.70;;;1.30;;
47896;SDS011;39629;51.400;5.494;2022-07-24T12:33:40;2.05;;;1.42;;
47896;SDS011;39629;51.400;5.494;2022-07-24T12:38:55;2.45;;;1.38;;
47896;SDS011;39629;51.400;5.494;2022-07-24T12:43:58;1.67;;;1.30;;
47896;SDS011;39629;51.400;5.494;2022-07-24T12:49:02;1.88;;;1.20;;
47896;SDS011;39629;51.400;5.494;2022-07-24T12:54:05;1.88;;;1.30;;
47896;SDS011;39629;51.400;5.494;2022-07-24T12:59:06;2.10;;;1.33;;
47896;SDS011;39629;51.400;5.494;2022-07-24T13:04:09;3.53;;;1.55;;
47896;SDS011;39629;51.400;5.494;2022-07-24T13:09:12;2.08;;;1.20;;
47896;SDS011;39629;51.400;5.494;2022-07-24T13:14:15;2.47;;;1.00;;
47896;SDS011;39629;51.400;5.494;2022-07-24T13:19:20;1.80;;;1.20;;
47896;SDS011;39629;51.400;5.494;2022-07-24T13:24:22;1.67;;;1.20;;
47896;SDS011;39629;51.400;5.494;2022-07-24T13:29:23;1.40;;;1.20;;
47896;SDS011;39629;51.400;5.494;2022-07-24T13:34:27;3.67;;;0.95;;
47896;SDS011;39629;51.400;5.494;2022-07-24T13:39:30;1.30;;;1.00;;
47896;SDS011;39629;51.400;5.494;2022-07-24T13:44:32;1.70;;;1.20;;
47896;SDS011;39629;51.400;5.494;2022-07-24T13:49:35;1.98;;;1.13;;
47896;SDS011;39629;51.400;5.494;2022-07-24T13:54:37;3.72;;;1.17;;
47896;SDS011;39629;51.400;5.494;2022-07-24T13:59:38;1.50;;;1.10;;
47896;SDS011;39629;51.400;5.494;2022-07-24T14:04:41;1.90;;;1.10;;
47896;SDS011;39629;51.400;5.494;2022-07-24T14:09:43;1.52;;;1.13;;
47896;SDS011;39629;51.400;5.494;2022-07-24T14:14:45;1.52;;;1.05;;
47896;SDS011;39629;51.400;5.494;2022-07-24T14:19:48;4.15;;;1.00;;
47896;SDS011;39629;51.400;5.494;2022-07-24T14:24:50;1.90;;;1.10;;
47896;SDS011;39629;51.400;5.494;2022-07-24T14:29:51;1.60;;;0.95;;
47896;SDS011;39629;51.400;5.494;2022-07-24T14:34:54;1.25;;;1.00;;
47896;SDS011;39629;51.400;5.494;2022-07-24T14:39:55;1.42;;;1.00;;
47896;SDS011;39629;51.400;5.494;2022-07-24T14:44:57;1.20;;;1.00;;
47896;SDS011;39629;51.400;5.494;2022-07-24T14:50:00;1.40;;;0.90;;
47896;SDS011;39629;51.400;5.494;2022-07-24T14:55:02;1.40;;;1.00;;
47896;SDS011;39629;51.400;5.494;2022-07-24T15:00:05;1.90;;;1.05;;
47896;SDS011;39629;51.400;5.494;2022-07-24T15:05:09;1.30;;;0.75;;
47896;SDS011;39629;51.400;5.494;2022-07-24T15:10:11;1.65;;;0.95;;
47896;SDS011;39629;51.400;5.494;2022-07-24T15:15:12;3.08;;;0.90;;
47896;SDS011;39629;51.400;5.494;2022-07-24T15:20:15;1.65;;;0.75;;
47896;SDS011;39629;51.400;5.494;2022-07-24T15:25:17;1.40;;;0.80;;
47896;SDS011;39629;51.400;5.494;2022-07-24T15:30:19;1.05;;;0.68;;
47896;SDS011;39629;51.400;5.494;2022-07-24T15:35:22;2.80;;;0.90;;
47896;SDS011;39629;51.400;5.494;2022-07-24T15:40:24;1.33;;;1.00;;
47896;SDS011;39629;51.400;5.494;2022-07-24T15:45:26;0.90;;;0.80;;
47896;SDS011;39629;51.400;5.494;2022-07-24T15:50:30;1.08;;;0.80;;
47896;SDS011;39629;51.400;5.494;2022-07-24T15:55:33;1.60;;;0.80;;
47896;SDS011;39629;51.400;5.494;2022-07-24T16:00:34;1.67;;;0.80;;
47896;SDS011;39629;51.400;5.494;2022-07-24T16:05:37;1.38;;;0.90;;
47896;SDS011;39629;51.400;5.494;2022-07-24T16:10:39;2.78;;;1.05;;
47896;SDS011;39629;51.400;5.494;2022-07-24T16:15:41;1.85;;;0.93;;
47896;SDS011;39629;51.400;5.494;2022-07-24T16:25:45;1.48;;;0.95;;
47896;SDS011;39629;51.400;5.494;2022-07-24T16:30:47;1.42;;;0.90;;
47896;SDS011;39629;51.400;5.494;2022-07-24T16:35:50;2.08;;;1.33;;
47896;SDS011;39629;51.400;5.494;2022-07-24T16:40:51;1.77;;;1.10;;
47896;SDS011;39629;51.400;5.494;2022-07-24T16:45:53;1.77;;;1.00;;
47896;SDS011;39629;51.400;5.494;2022-07-24T16:50:56;1.52;;;1.25;;
47896;SDS011;39629;51.400;5.494;2022-07-24T16:55:58;2.05;;;1.60;;
47896;SDS011;39629;51.400;5.494;2022-07-24T17:00:59;1.50;;;1.20;;
47896;SDS011;39629;51.400;5.494;2022-07-24T17:06:03;4.43;;;1.35;;
47896;SDS011;39629;51.400;5.494;2022-07-24T17:11:05;3.00;;;1.38;;
47896;SDS011;39629;51.400;5.494;2022-07-24T17:16:07;1.73;;;1.40;;
47896;SDS011;39629;51.400;5.494;2022-07-24T17:21:10;1.52;;;1.15;;
47896;SDS011;39629;51.400;5.494;2022-07-24T17:26:12;2.97;;;1.77;;
47896;SDS011;39629;51.400;5.494;2022-07-24T17:31:13;2.50;;;1.50;;
47896;SDS011;39629;51.400;5.494;2022-07-24T17:36:19;2.08;;;1.50;;
47896;SDS011;39629;51.400;5.494;2022-07-24T17:41:21;2.65;;;1.50;;
47896;SDS011;39629;51.400;5.494;2022-07-24T17:46:23;2.47;;;1.52;;
47896;SDS011;39629;51.400;5.494;2022-07-24T17:51:25;1.92;;;1.60;;
47896;SDS011;39629;51.400;5.494;2022-07-24T17:56:27;3.38;;;1.65;;
47896;SDS011;39629;51.400;5.494;2022-07-24T18:01:29;2.20;;;1.80;;
47896;SDS011;39629;51.400;5.494;2022-07-24T18:06:32;2.13;;;1.73;;
47896;SDS011;39629;51.400;5.494;2022-07-24T18:11:33;2.60;;;1.80;;
47896;SDS011;39629;51.400;5.494;2022-07-24T18:16:35;2.22;;;1.75;;
47896;SDS011;39629;51.400;5.494;2022-07-24T18:21:38;3.53;;;2.10;;
47896;SDS011;39629;51.400;5.494;2022-07-24T18:26:39;2.85;;;2.10;;
47896;SDS011;39629;51.400;5.494;2022-07-24T18:31:41;2.88;;;2.00;;
47896;SDS011;39629;51.400;5.494;2022-07-24T18:36:44;2.93;;;1.97;;
47896;SDS011;39629;51.400;5.494;2022-07-24T18:41:46;2.40;;;1.80;;
47896;SDS011;39629;51.400;5.494;2022-07-24T18:46:47;4.40;;;2.10;;
47896;SDS011;39629;51.400;5.494;2022-07-24T18:51:50;3.83;;;2.08;;
47896;SDS011;39629;51.400;5.494;2022-07-24T18:56:53;2.45;;;1.92;;
47896;SDS011;39629;51.400;5.494;2022-07-24T19:01:55;5.07;;;2.20;;
47896;SDS011;39629;51.400;5.494;2022-07-24T19:07:00;2.90;;;2.05;;
47896;SDS011;39629;51.400;5.494;2022-07-24T19:17:03;4.25;;;2.10;;
47896;SDS011;39629;51.400;5.494;2022-07-24T19:22:06;3.13;;;2.40;;
47896;SDS011;39629;51.400;5.494;2022-07-24T19:32:09;4.03;;;2.13;;
47896;SDS011;39629;51.400;5.494;2022-07-24T19:37:12;5.47;;;2.40;;
47896;SDS011;39629;51.400;5.494;2022-07-24T19:42:14;3.30;;;2.25;;
47896;SDS011;39629;51.400;5.494;2022-07-24T19:47:17;6.20;;;2.30;;
47896;SDS011;39629;51.400;5.494;2022-07-24T19:52:21;2.95;;;2.30;;
47896;SDS011;39629;51.400;5.494;2022-07-24T20:02:24;5.18;;;2.85;;
47896;SDS011;39629;51.400;5.494;2022-07-24T20:07:27;3.80;;;2.70;;
47896;SDS011;39629;51.400;5.494;2022-07-24T20:12:29;3.80;;;2.38;;
47896;SDS011;39629;51.400;5.494;2022-07-24T20:17:31;3.28;;;2.60;;
47896;SDS011;39629;51.400;5.494;2022-07-24T20:22:34;3.70;;;3.03;;
47896;SDS011;39629;51.400;5.494;2022-07-24T20:27:35;5.20;;;3.33;;
47896;SDS011;39629;51.400;5.494;2022-07-24T20:32:37;3.60;;;2.70;;
47896;SDS011;39629;51.400;5.494;2022-07-24T20:37:40;3.60;;;2.42;;
47896;SDS011;39629;51.400;5.494;2022-07-24T20:42:42;3.83;;;2.67;;
47896;SDS011;39629;51.400;5.494;2022-07-24T20:47:43;3.78;;;2.60;;
47896;SDS011;39629;51.400;5.494;2022-07-24T20:52:46;3.20;;;2.83;;
47896;SDS011;39629;51.400;5.494;2022-07-24T20:57:48;4.05;;;2.95;;
47896;SDS011;39629;51.400;5.494;2022-07-24T21:02:49;3.85;;;2.70;;
47896;SDS011;39629;51.400;5.494;2022-07-24T21:07:52;4.53;;;3.05;;
47896;SDS011;39629;51.400;5.494;2022-07-24T21:12:54;4.88;;;2.88;;
47896;SDS011;39629;51.400;5.494;2022-07-24T21:17:56;4.30;;;2.78;;
47896;SDS011;39629;51.400;5.494;2022-07-24T21:22:59;4.40;;;3.00;;
47896;SDS011;39629;51.400;5.494;2022-07-24T21:28:01;6.35;;;3.08;;
47896;SDS011;39629;51.400;5.494;2022-07-24T21:33:02;5.55;;;3.00;;
47896;SDS011;39629;51.400;5.494;2022-07-24T21:38:05;4.25;;;3.25;;
47896;SDS011;39629;51.400;5.494;2022-07-24T21:43:07;8.43;;;3.30;;
47896;SDS011;39629;51.400;5.494;2022-07-24T21:48:09;5.00;;;3.33;;
47896;SDS011;39629;51.400;5.494;2022-07-24T21:53:11;4.68;;;3.10;;
47896;SDS011;39629;51.400;5.494;2022-07-24T21:58:13;5.03;;;3.30;;
47896;SDS011;39629;51.400;5.494;2022-07-24T22:03:15;4.93;;;3.10;;
47896;SDS011;39629;51.400;5.494;2022-07-24T22:08:19;6.82;;;3.35;;
47896;SDS011;39629;51.400;5.494;2022-07-24T22:13:20;4.67;;;3.30;;
47896;SDS011;39629;51.400;5.494;2022-07-24T22:18:22;5.65;;;3.25;;
47896;SDS011;39629;51.400;5.494;2022-07-24T22:23:25;5.13;;;3.38;;
47896;SDS011;39629;51.400;5.494;2022-07-24T22:28:27;11.27;;;3.70;;
47896;SDS011;39629;51.400;5.494;2022-07-24T22:33:29;6.15;;;3.78;;
47896;SDS011;39629;51.400;5.494;2022-07-24T22:38:32;5.75;;;3.85;;
47896;SDS011;39629;51.400;5.494;2022-07-24T22:43:34;9.95;;;3.75;;
47896;SDS011;39629;51.400;5.494;2022-07-24T22:48:36;4.68;;;3.58;;
47896;SDS011;39629;51.400;5.494;2022-07-24T22:53:39;6.60;;;4.38;;
47896;SDS011;39629;51.400;5.494;2022-07-24T22:58:41;7.82;;;4.40;;
47896;SDS011;39629;51.400;5.494;2022-07-24T23:03:44;6.55;;;3.88;;
47896;SDS011;39629;51.400;5.494;2022-07-24T23:08:47;5.13;;;4.00;;
47896;SDS011;39629;51.400;5.494;2022-07-24T23:13:48;6.05;;;4.35;;
47896;SDS011;39629;51.400;5.494;2022-07-24T23:18:50;4.70;;;3.50;;
47896;SDS011;39629;51.400;5.494;2022-07-24T23:23:53;4.78;;;3.13;;
47896;SDS011;39629;51.400;5.494;2022-07-24T23:28:55;6.40;;;4.18;;
47896;SDS011;39629;51.400;5.494;2022-07-24T23:33:56;6.32;;;4.55;;
47896;SDS011;39629;51.400;5.494;2022-07-24T23:38:59;5.82;;;3.95;;
47896;SDS011;39629;51.400;5.494;2022-07-24T23:44:01;5.55;;;4.18;;
47896;SDS011;39629;51.400;5.494;2022-07-24T23:49:03;5.68;;;4.20;;
47896;SDS011;39629;51.400;5.494;2022-07-24T23:54:05;5.53;;;3.70;;
47896;SDS011;39629;51.400;5.494;2022-07-24T23:59:07;5.78;;;3.88;;
